createdAt,value
2018-06-10T00:05:13.527Z,7.77
2018-06-10T00:07:33.945Z,8.17
2018-06-10T00:36:07.672Z,10.67
2018-06-10T00:38:17.439Z,11.80
2018-06-10T00:40:25.847Z,16.10
2018-06-10T00:42:34.091Z,11.73
2018-06-10T00:45:59.267Z,12.10
2018-06-10T00:48:05.714Z,12.53
2018-06-10T00:50:13.387Z,14.17
2018-06-10T00:54:29.928Z,12.97
2018-06-10T00:56:45.720Z,14.27
2018-06-10T00:59:01.842Z,13.33
2018-06-10T01:01:06.104Z,14.00
2018-06-10T01:03:13.102Z,14.73
2018-06-10T01:05:18.829Z,15.20
2018-06-10T01:07:24.315Z,16.53
2018-06-10T01:09:34.657Z,15.00
2018-06-10T01:11:41.986Z,14.07
2018-06-10T01:13:48.353Z,15.50
2018-06-10T01:23:32.310Z,14.40
2018-06-10T01:25:43.799Z,13.60
2018-06-10T01:34:38.868Z,13.70
2018-06-10T01:38:09.656Z,13.43
2018-06-10T01:41:15.373Z,14.37
2018-06-10T01:48:53.448Z,13.27
2018-06-10T01:50:57.656Z,14.37
2018-06-10T01:53:01.877Z,13.83
2018-06-10T01:55:06.749Z,14.60
2018-06-10T01:57:11.374Z,13.97
2018-06-10T01:59:15.525Z,14.57
2018-06-10T02:01:19.812Z,13.97
2018-06-10T02:03:24.435Z,14.70
2018-06-10T02:05:30.936Z,16.30
2018-06-10T02:07:35.859Z,14.60
2018-06-10T02:09:40.475Z,14.07
2018-06-10T02:11:48.071Z,14.00
2018-06-10T02:13:53.418Z,14.83
2018-06-10T02:15:58.355Z,13.30
2018-06-10T02:18:02.865Z,13.77
2018-06-10T02:20:07.237Z,12.70
2018-06-10T02:22:12.761Z,13.80
2018-06-10T02:24:18.028Z,16.53
2018-06-10T02:26:22.710Z,13.33
2018-06-10T02:28:27.156Z,13.80
2018-06-10T02:30:40.831Z,13.77
2018-06-10T02:46:46.653Z,14.23
2018-06-10T02:48:51.896Z,16.30
2018-06-10T02:50:59.112Z,15.13
2018-06-10T02:53:07.842Z,14.53
2018-06-10T02:55:15.067Z,15.03
2018-06-10T02:57:21.147Z,16.83
2018-06-10T02:59:29.077Z,16.40
2018-06-10T03:01:36.185Z,17.27
2018-06-10T03:03:44.488Z,16.73
2018-06-10T03:05:52.686Z,16.50
2018-06-10T03:07:58.701Z,17.23
2018-06-10T03:10:04.232Z,17.00
2018-06-10T03:12:13.639Z,16.60
2018-06-10T03:14:19.766Z,17.83
2018-06-10T03:16:24.303Z,23.03
2018-06-10T03:18:29.102Z,17.63
2018-06-10T03:20:37.976Z,19.00
2018-06-10T03:22:42.242Z,20.77
2018-06-10T03:24:52.389Z,19.33
2018-06-10T03:26:58.227Z,22.30
2018-06-10T03:29:02.362Z,19.43
2018-06-10T03:31:07.390Z,20.27
2018-06-10T03:33:13.258Z,17.27
2018-06-10T03:35:17.317Z,22.67
2018-06-10T03:37:21.531Z,22.60
2018-06-10T03:39:26.497Z,20.03
2018-06-10T03:41:30.492Z,20.97
2018-06-10T03:43:35.403Z,20.50
2018-06-10T03:48:07.537Z,20.53
2018-06-10T03:50:11.727Z,24.47
2018-06-10T03:52:16.306Z,21.70
2018-06-10T03:54:21.530Z,20.60
2018-06-10T03:56:25.638Z,21.60
2018-06-10T03:58:30.412Z,22.10
2018-06-10T04:00:34.334Z,21.90
2018-06-10T04:02:39.080Z,22.73
2018-06-10T04:04:42.641Z,24.33
2018-06-10T04:06:46.554Z,24.60
2018-06-10T04:08:50.663Z,22.17
2018-06-10T04:10:54.706Z,20.87
2018-06-10T04:12:59.933Z,20.97
2018-06-10T04:15:05.202Z,21.23
2018-06-10T04:17:09.267Z,21.00
2018-06-10T04:19:14.502Z,20.10
2018-06-10T04:21:18.490Z,21.00
2018-06-10T04:23:22.387Z,18.90
2018-06-10T04:25:27.182Z,20.63
2018-06-10T04:27:30.773Z,21.70
2018-06-10T04:29:35.394Z,21.00
2018-06-10T04:31:40.213Z,20.90
2018-06-10T04:33:44.185Z,19.43
2018-06-10T04:35:48.188Z,19.20
2018-06-10T04:37:53.857Z,18.07
2018-06-10T04:39:57.842Z,18.80
2018-06-10T04:42:01.963Z,19.43
2018-06-10T04:44:09.901Z,17.60
2018-06-10T04:46:14.086Z,16.73
2018-06-10T04:48:18.147Z,16.50
2018-06-10T04:50:22.085Z,18.33
2018-06-10T04:52:26.687Z,17.27
2018-06-10T04:54:33.642Z,21.27
2018-06-10T04:56:37.665Z,17.80
2018-06-10T04:58:41.641Z,17.83
2018-06-10T05:00:46.570Z,19.10
2018-06-10T05:02:50.489Z,18.53
2018-06-10T05:04:54.527Z,18.83
2018-06-10T05:07:00.831Z,18.07
2018-06-10T05:09:06.894Z,19.13
2018-06-10T05:11:11.090Z,17.90
2018-06-10T05:13:15.459Z,18.23
2018-06-10T05:15:20.482Z,18.73
2018-06-10T05:17:25.770Z,17.43
2018-06-10T05:19:31.164Z,18.00
2018-06-10T05:21:35.134Z,17.33
2018-06-10T05:23:39.144Z,19.67
2018-06-10T05:25:43.227Z,17.17
2018-06-10T05:27:48.637Z,17.40
2018-06-10T05:29:52.735Z,18.97
2018-06-10T05:31:58.410Z,18.37
2018-06-10T05:34:02.701Z,18.73
2018-06-10T05:36:08.034Z,18.80
2018-06-10T05:38:14.127Z,18.90
2018-06-10T05:40:19.921Z,18.97
2018-06-10T05:42:24.371Z,19.37
2018-06-10T05:44:32.886Z,19.00
2018-06-10T05:46:37.546Z,20.73
2018-06-10T05:48:42.515Z,20.53
2018-06-10T05:50:49.070Z,21.57
2018-06-10T05:52:53.134Z,19.80
2018-06-10T05:54:57.139Z,19.93
2018-06-10T05:57:02.277Z,20.47
2018-06-10T05:59:07.209Z,18.20
2018-06-10T06:01:12.037Z,17.87
2018-06-10T06:03:17.543Z,18.50
2018-06-10T06:05:27.536Z,19.13
2018-06-10T06:07:31.522Z,19.43
2018-06-10T06:09:35.619Z,20.23
2018-06-10T06:11:39.874Z,18.97
2018-06-10T06:13:46.504Z,19.87
2018-06-10T06:15:51.814Z,21.20
2018-06-10T06:17:56.166Z,20.37
2018-06-10T06:20:00.762Z,20.20
2018-06-10T06:22:05.394Z,19.60
2018-06-10T06:24:09.987Z,20.83
2018-06-10T06:26:14.682Z,20.10
2018-06-10T06:28:20.705Z,21.47
2018-06-10T06:30:45.430Z,20.23
2018-06-10T06:47:25.982Z,22.40
2018-06-10T06:49:31.020Z,23.17
2018-06-10T06:51:35.528Z,22.60
2018-06-10T06:53:40.642Z,23.30
2018-06-10T06:55:48.585Z,24.63
2018-06-10T06:57:52.697Z,24.17
2018-06-10T06:59:58.572Z,24.47
2018-06-10T07:02:03.676Z,24.53
2018-06-10T07:04:07.926Z,24.27
2018-06-10T07:06:13.380Z,25.03
2018-06-10T07:08:17.706Z,26.13
2018-06-10T07:10:22.550Z,24.47
2018-06-10T07:12:26.553Z,24.23
2018-06-10T07:14:30.793Z,24.27
2018-06-10T07:16:34.739Z,25.33
2018-06-10T07:18:38.761Z,23.70
2018-06-10T07:20:42.942Z,25.87
2018-06-10T07:22:50.528Z,26.23
2018-06-10T07:24:54.777Z,23.73
2018-06-10T07:26:58.814Z,24.47
2018-06-10T07:29:04.878Z,22.97
2018-06-10T07:31:12.315Z,21.87
2018-06-10T07:33:16.334Z,22.37
2018-06-10T07:35:23.888Z,20.13
2018-06-10T07:37:29.907Z,19.87
2018-06-10T07:39:33.914Z,18.33
2018-06-10T07:41:39.761Z,16.87
2018-06-10T07:43:45.493Z,10.50
2018-06-10T07:45:51.625Z,11.70
2018-06-10T07:47:57.899Z,10.13
2018-06-10T07:50:01.896Z,10.63
2018-06-10T07:52:05.817Z,9.87
2018-06-10T07:54:11.019Z,9.15
2018-06-10T07:56:15.641Z,7.93
2018-06-10T07:58:20.753Z,6.83
2018-06-10T08:00:25.149Z,7.90
2018-06-10T08:02:29.066Z,7.73
2018-06-10T08:04:33.123Z,7.12
2018-06-10T08:06:38.376Z,7.40
2018-06-10T08:08:42.411Z,6.67
2018-06-10T08:10:46.599Z,7.20
2018-06-10T08:12:50.826Z,9.03
2018-06-10T08:14:54.750Z,10.37
2018-06-10T08:16:58.685Z,9.50
2018-06-10T08:19:03.979Z,7.58
2018-06-10T08:21:07.934Z,10.80
2018-06-10T08:23:12.702Z,8.50
2018-06-10T08:25:16.867Z,10.10
2018-06-10T08:27:21.859Z,9.25
2018-06-10T08:29:26.087Z,9.43
2018-06-10T08:31:30.463Z,9.88
2018-06-10T08:33:35.337Z,10.03
2018-06-10T08:35:40.560Z,8.60
2018-06-10T08:37:53.451Z,8.63
2018-06-10T08:39:57.914Z,9.13
2018-06-10T08:42:03.205Z,9.00
2018-06-10T08:44:09.582Z,9.30
2018-06-10T08:46:13.596Z,9.20
2018-06-10T08:48:17.685Z,8.88
2018-06-10T08:50:22.246Z,10.18
2018-06-10T08:52:26.320Z,8.33
2018-06-10T08:54:30.296Z,9.35
2018-06-10T08:56:36.397Z,10.03
2018-06-10T08:58:41.349Z,9.48
2018-06-10T09:00:46.462Z,9.10
2018-06-10T09:07:18.130Z,8.98
2018-06-10T09:09:24.531Z,8.20
2018-06-10T09:11:29.672Z,8.15
2018-06-10T09:13:33.749Z,7.95
2018-06-10T09:15:39.095Z,8.43
2018-06-10T09:17:42.697Z,8.28
2018-06-10T09:19:47.335Z,7.75
2018-06-10T09:21:54.102Z,7.47
2018-06-10T09:23:59.513Z,7.40
2018-06-10T09:26:04.811Z,7.40
2018-06-10T09:30:46.310Z,6.50
2018-06-10T09:32:52.579Z,6.65
2018-06-10T09:34:58.177Z,8.03
2018-06-10T09:37:13.532Z,7.75
2018-06-10T09:39:19.656Z,8.08
2018-06-10T09:41:25.335Z,9.38
2018-06-10T09:43:29.437Z,7.85
2018-06-10T09:45:35.391Z,7.95
2018-06-10T09:47:41.674Z,7.70
2018-06-10T09:49:48.379Z,8.18
2018-06-10T09:51:53.702Z,7.62
2018-06-10T09:53:58.389Z,8.28
2018-06-10T09:56:03.539Z,8.28
2018-06-10T09:58:08.471Z,8.33
2018-06-10T10:00:18.090Z,7.60
2018-06-10T10:02:22.261Z,7.50
2018-06-10T10:04:26.952Z,7.22
2018-06-10T10:06:31.333Z,7.50
2018-06-10T10:08:35.240Z,7.05
2018-06-10T10:10:39.876Z,6.92
2018-06-10T10:12:44.126Z,6.33
2018-06-10T10:14:48.271Z,6.87
2018-06-10T10:16:53.886Z,7.03
2018-06-10T10:19:09.652Z,7.55
2018-06-10T10:21:23.742Z,7.47
2018-06-10T10:23:50.122Z,8.10
2018-06-10T10:26:06.947Z,7.67
2018-06-10T10:28:17.528Z,7.40
2018-06-10T10:30:28.752Z,7.17
2018-06-10T10:32:32.898Z,8.13
2018-06-10T10:34:37.006Z,7.15
2018-06-10T10:36:43.727Z,6.65
2018-06-10T10:38:48.681Z,7.33
2018-06-10T10:40:55.202Z,7.78
2018-06-10T10:43:16.754Z,8.08
2018-06-10T10:45:23.524Z,7.80
2018-06-10T10:47:29.371Z,7.62
2018-06-10T10:49:33.731Z,7.37
2018-06-10T10:51:38.296Z,8.08
2018-06-10T10:53:42.510Z,8.28
2018-06-10T10:55:48.790Z,9.08
2018-06-10T10:57:53.711Z,8.68
2018-06-10T10:59:57.650Z,8.13
2018-06-10T11:02:02.346Z,8.05
2018-06-10T11:04:08.899Z,8.55
2018-06-10T11:06:14.746Z,7.67
2018-06-10T11:08:19.411Z,7.50
2018-06-10T11:10:24.582Z,7.92
2018-06-10T11:12:29.274Z,7.92
2018-06-10T11:14:34.455Z,7.55
2018-06-10T11:16:41.458Z,8.15
2018-06-10T11:18:47.636Z,8.33
2018-06-10T11:20:53.302Z,8.70
2018-06-10T11:22:59.678Z,9.70
2018-06-10T11:25:03.656Z,9.03
2018-06-10T11:27:13.092Z,8.40
2018-06-10T11:29:25.903Z,8.23
2018-06-10T11:31:32.005Z,8.28
2018-06-10T11:33:36.099Z,12.23
2018-06-10T11:35:40.982Z,11.50
2018-06-10T11:37:44.858Z,12.88
2018-06-10T11:39:48.773Z,14.45
2018-06-10T11:41:55.635Z,12.80
2018-06-10T11:44:01.129Z,12.73
2018-06-10T11:46:05.732Z,14.40
2018-06-10T11:48:11.100Z,13.67
2018-06-10T11:50:52.176Z,13.13
2018-06-10T11:55:07.525Z,13.53
2018-06-10T11:57:15.895Z,12.17
2018-06-10T11:59:21.714Z,14.07
2018-06-10T12:01:27.126Z,12.83
2018-06-10T12:03:33.168Z,13.80
2018-06-10T12:05:38.443Z,11.40
2018-06-10T12:07:45.395Z,10.80
2018-06-10T12:09:52.091Z,11.80
2018-06-10T12:11:55.992Z,11.67
2018-06-10T12:14:00.583Z,10.30
2018-06-10T12:16:04.583Z,10.70
2018-06-10T12:18:08.561Z,11.53
2018-06-10T12:20:14.082Z,9.97
2018-06-10T12:22:18.321Z,9.97
2018-06-10T12:24:24.572Z,10.73
2018-06-10T12:26:32.826Z,11.45
2018-06-10T12:28:41.476Z,9.95
2018-06-10T12:30:47.083Z,10.90
2018-06-10T12:32:52.300Z,9.90
2018-06-10T12:34:57.224Z,10.53
2018-06-10T12:37:05.678Z,10.72
2018-06-10T12:39:11.691Z,10.53
2018-06-10T12:41:15.421Z,11.22
2018-06-10T12:43:27.369Z,10.25
2018-06-10T12:45:36.231Z,11.00
2018-06-10T12:47:41.179Z,13.03
2018-06-10T12:49:45.961Z,11.83
2018-06-10T12:51:54.176Z,11.97
2018-06-10T12:54:01.498Z,10.33
2018-06-10T12:56:13.287Z,10.23
2018-06-10T12:58:20.205Z,10.00
2018-06-10T13:00:27.144Z,10.43
2018-06-10T13:02:32.509Z,9.47
2018-06-10T13:06:48.360Z,8.67
2018-06-10T13:08:55.208Z,8.47
2018-06-10T13:10:59.165Z,7.60
2018-06-10T13:13:05.299Z,7.53
2018-06-10T13:15:10.017Z,8.10
2018-06-10T13:17:16.311Z,8.30
2018-06-10T13:19:23.332Z,9.13
2018-06-10T13:21:29.696Z,9.45
2018-06-10T13:23:33.850Z,9.70
2018-06-10T13:25:41.289Z,9.80
2018-06-10T13:27:45.746Z,10.13
2018-06-10T13:29:51.970Z,9.40
2018-06-10T13:32:03.625Z,9.88
2018-06-10T13:34:07.732Z,10.25
2018-06-10T13:36:13.255Z,11.03
2018-06-10T13:38:24.677Z,10.65
2018-06-10T13:40:33.455Z,10.68
2018-06-10T13:42:38.121Z,10.03
2018-06-10T13:44:42.530Z,9.93
2018-06-10T13:46:47.232Z,10.23
2018-06-10T13:48:52.085Z,10.23
2018-06-10T13:50:56.205Z,9.40
2018-06-10T13:53:03.045Z,9.13
2018-06-10T13:55:12.315Z,10.10
2018-06-10T13:57:19.134Z,9.20
2018-06-10T13:59:25.519Z,9.95
2018-06-10T14:01:32.216Z,8.80
2018-06-10T14:03:38.300Z,9.70
2018-06-10T14:05:43.220Z,8.73
2018-06-10T14:07:49.493Z,9.43
2018-06-10T14:09:55.862Z,9.38
2018-06-10T14:12:01.304Z,9.93
2018-06-10T14:14:05.765Z,9.03
2018-06-10T14:16:11.126Z,9.15
2018-06-10T14:18:15.734Z,9.78
2018-06-10T14:20:22.979Z,9.13
2018-06-10T14:22:27.254Z,11.28
2018-06-10T14:24:31.382Z,9.80
2018-06-10T14:26:37.354Z,8.90
2018-06-10T14:28:45.164Z,9.80
2018-06-10T14:30:54.667Z,9.73
2018-06-10T14:33:02.249Z,8.83
2018-06-10T14:35:09.732Z,8.80
2018-06-10T14:37:31.105Z,9.48
2018-06-10T14:39:41.517Z,9.75
2018-06-10T14:41:53.472Z,8.93
2018-06-10T14:44:00.526Z,8.90
2018-06-10T14:46:06.102Z,8.70
2018-06-10T14:48:12.686Z,8.68
2018-06-10T14:50:20.560Z,8.63
2018-06-10T14:52:36.996Z,8.73
2018-06-10T14:55:11.218Z,8.68
2018-06-10T14:57:27.105Z,9.10
2018-06-10T14:59:54.157Z,8.90
2018-06-10T15:02:01.406Z,8.73
2018-06-10T15:04:11.488Z,7.90
2018-06-10T15:06:15.416Z,8.33
2018-06-10T15:08:22.129Z,7.60
2018-06-10T15:10:29.706Z,8.40
2018-06-10T15:12:36.654Z,9.35
2018-06-10T15:14:44.361Z,8.73
2018-06-10T15:16:50.218Z,9.20
2018-06-10T15:18:55.012Z,8.93
2018-06-10T15:21:12.163Z,9.18
2018-06-10T15:23:21.210Z,9.38
2018-06-10T15:25:26.002Z,9.73
2018-06-10T15:27:32.664Z,8.55
2018-06-10T15:29:37.751Z,9.25
2018-06-10T15:32:27.221Z,8.98
2018-06-10T15:34:33.188Z,9.30
2018-06-10T15:36:43.115Z,9.63
2018-06-10T15:38:48.037Z,9.58
2018-06-10T15:40:53.832Z,9.00
2018-06-10T15:43:10.811Z,9.68
2018-06-10T15:45:30.736Z,9.78
2018-06-10T15:47:37.422Z,10.00
2018-06-10T15:49:48.029Z,9.63
2018-06-10T15:51:54.426Z,9.78
2018-06-10T15:54:02.117Z,8.95
2018-06-10T15:56:07.550Z,9.60
2018-06-10T15:58:12.431Z,9.48
2018-06-10T16:00:23.592Z,9.50
2018-06-10T16:02:28.363Z,9.55
2018-06-10T16:04:37.746Z,10.08
2018-06-10T16:06:42.642Z,9.15
2018-06-10T16:08:48.386Z,9.30
2018-06-10T16:10:58.488Z,9.28
2018-06-10T16:13:05.672Z,8.90
2018-06-10T16:15:10.717Z,10.23
2018-06-10T16:17:15.906Z,9.80
2018-06-10T16:19:20.935Z,9.28
2018-06-10T16:21:26.774Z,9.23
2018-06-10T16:23:31.823Z,9.45
2018-06-10T16:25:46.057Z,8.93
2018-06-10T16:27:54.463Z,9.05
2018-06-10T16:30:02.418Z,9.30
2018-06-10T16:32:09.271Z,9.05
2018-06-10T16:34:14.238Z,9.25
2018-06-10T16:36:21.053Z,9.13
2018-06-10T16:38:25.987Z,9.05
2018-06-10T16:40:36.602Z,9.80
2018-06-10T16:42:40.846Z,9.70
2018-06-10T16:44:46.269Z,9.85
2018-06-10T16:46:51.783Z,9.58
2018-06-10T16:48:56.926Z,8.88
2018-06-10T16:51:02.508Z,9.33
2018-06-10T16:53:11.882Z,9.48
2018-06-10T16:55:20.464Z,9.58
2018-06-10T16:57:26.268Z,9.25
2018-06-10T16:59:40.614Z,9.90
2018-06-10T17:01:52.551Z,9.60
2018-06-10T17:04:01.718Z,9.73
2018-06-10T17:06:10.559Z,9.28
2018-06-10T17:08:16.955Z,10.05
2018-06-10T17:10:26.352Z,9.80
2018-06-10T17:12:30.977Z,8.85
2018-06-10T17:14:37.217Z,9.28
2018-06-10T17:16:43.129Z,9.55
2018-06-10T17:18:48.360Z,9.85
2018-06-10T17:20:53.397Z,9.65
2018-06-10T17:22:58.405Z,9.78
2018-06-10T17:25:07.014Z,10.50
2018-06-10T17:27:22.196Z,9.65
2018-06-10T17:29:47.520Z,10.28
2018-06-10T17:31:55.325Z,10.40
2018-06-10T17:34:07.382Z,9.93
2018-06-10T17:36:13.784Z,10.60
2018-06-10T17:38:50.315Z,10.32
2018-06-10T17:40:58.102Z,9.73
2018-06-10T17:43:11.743Z,9.98
2018-06-10T17:45:16.929Z,10.32
2018-06-10T17:47:33.268Z,10.65
2018-06-10T17:49:43.755Z,10.32
2018-06-10T17:51:52.667Z,11.25
2018-06-10T17:53:59.354Z,10.98
2018-06-10T17:56:10.002Z,10.00
2018-06-10T17:58:15.254Z,10.37
2018-06-10T18:00:25.666Z,11.55
2018-06-10T18:02:31.721Z,10.72
2018-06-10T18:04:37.750Z,11.22
2018-06-10T18:06:42.788Z,11.70
2018-06-10T18:08:46.829Z,11.35
2018-06-10T18:10:52.278Z,11.33
2018-06-10T18:12:59.211Z,11.00
2018-06-10T18:15:08.444Z,10.60
2018-06-10T18:17:17.496Z,11.08
2018-06-10T18:19:23.581Z,11.30
2018-06-10T18:21:29.937Z,11.28
2018-06-10T18:23:35.006Z,12.10
2018-06-10T18:25:44.798Z,11.83
2018-06-10T18:27:50.169Z,12.23
2018-06-10T18:29:59.811Z,13.13
2018-06-10T18:32:07.403Z,12.30
2018-06-10T18:39:27.350Z,12.13
2018-06-10T18:41:40.043Z,13.43
2018-06-10T18:43:51.427Z,13.47
2018-06-10T18:46:01.289Z,12.77
2018-06-10T18:48:08.913Z,13.30
2018-06-10T18:50:22.264Z,13.23
2018-06-10T18:52:32.606Z,13.77
2018-06-10T18:54:39.228Z,14.13
2018-06-10T18:56:53.527Z,14.23
2018-06-10T18:59:07.882Z,15.37
2018-06-10T19:04:04.964Z,14.00
2018-06-10T19:16:50.713Z,10.20
2018-06-10T19:19:00.630Z,10.93
2018-06-10T19:46:49.601Z,11.57
2018-06-10T19:49:01.889Z,12.50
2018-06-10T19:51:12.366Z,12.10
2018-06-10T19:53:19.646Z,12.50
2018-06-10T19:55:26.007Z,12.90
2018-06-10T19:57:36.165Z,12.80
2018-06-10T19:59:40.663Z,12.03
2018-06-10T20:01:46.080Z,12.27
2018-06-10T20:03:58.851Z,10.93
2018-06-10T20:08:40.172Z,11.43
2018-06-10T20:10:46.232Z,10.67
2018-06-10T20:12:52.446Z,10.33
2018-06-10T20:15:10.027Z,10.20
2018-06-10T20:17:26.783Z,10.20
2018-06-10T20:24:33.732Z,10.20
2018-06-10T20:26:39.826Z,10.00
2018-06-10T20:30:49.672Z,11.93
2018-06-10T20:33:51.274Z,15.00
2018-06-10T20:43:18.351Z,10.33
2018-06-10T20:48:57.587Z,10.53
2018-06-10T20:53:25.197Z,11.90
2018-06-10T20:55:31.711Z,12.37
2018-06-10T20:57:37.698Z,12.53
2018-06-10T20:59:43.750Z,12.60
2018-06-10T21:01:53.451Z,12.37
2018-06-10T21:03:59.157Z,12.27
2018-06-10T21:06:06.340Z,12.47
2018-06-10T21:08:10.366Z,12.03
2018-06-10T21:10:14.567Z,12.00
2018-06-10T21:12:21.285Z,12.97
2018-06-10T21:14:40.982Z,12.17
2018-06-10T21:16:48.547Z,12.17
2018-06-10T21:18:56.570Z,11.77
2018-06-10T21:21:01.495Z,12.50
2018-06-10T21:23:05.997Z,12.63
2018-06-10T21:25:09.920Z,13.00
2018-06-10T21:27:14.878Z,12.43
2018-06-10T21:29:19.548Z,13.37
2018-06-10T21:31:25.805Z,13.63
2018-06-10T21:33:35.568Z,13.23
2018-06-10T21:35:46.472Z,12.80
2018-06-10T21:38:13.110Z,13.23
2018-06-10T21:52:30.649Z,13.03
2018-06-10T21:54:43.557Z,14.17
2018-06-10T21:59:59.219Z,13.10
2018-06-10T22:02:10.980Z,13.20
2018-06-10T22:04:15.953Z,12.80
2018-06-10T22:06:20.786Z,13.13
2018-06-10T22:08:28.148Z,13.77
2018-06-10T22:10:33.503Z,13.87
2018-06-10T22:12:40.497Z,13.30
2018-06-10T22:14:49.512Z,13.50
2018-06-10T22:16:54.667Z,13.43
2018-06-10T22:18:58.626Z,14.07
2018-06-10T22:21:02.665Z,14.17
2018-06-10T22:23:06.339Z,13.27
2018-06-10T22:25:10.451Z,13.20
2018-06-10T22:27:15.931Z,13.40
2018-06-10T22:29:20.135Z,12.63
2018-06-10T22:31:24.767Z,13.83
2018-06-10T22:33:32.617Z,13.27
2018-06-10T22:35:39.282Z,13.57
2018-06-10T22:37:46.329Z,13.97
2018-06-10T22:39:50.238Z,13.20
2018-06-10T22:41:56.015Z,13.10
2018-06-10T22:44:02.343Z,12.73
2018-06-10T22:46:07.284Z,13.80
2018-06-10T22:48:13.280Z,13.53
2018-06-10T22:50:18.787Z,13.27
2018-06-10T22:52:25.560Z,13.60
2018-06-10T22:54:41.582Z,13.40
2018-06-10T22:56:46.553Z,13.77
2018-06-10T22:58:52.291Z,14.23
2018-06-10T23:00:57.802Z,14.73
2018-06-10T23:03:06.681Z,12.77
2018-06-10T23:05:11.582Z,13.53
2018-06-10T23:07:16.715Z,15.10
2018-06-10T23:09:20.773Z,14.63
2018-06-10T23:11:26.589Z,14.23
2018-06-10T23:13:31.534Z,14.27
2018-06-10T23:15:37.162Z,15.10
2018-06-10T23:17:42.329Z,15.33
2018-06-10T23:19:47.178Z,14.63
2018-06-10T23:21:52.549Z,14.07
2018-06-10T23:23:58.749Z,14.37
2018-06-10T23:29:27.173Z,14.07
2018-06-10T23:44:34.591Z,13.03
2018-06-10T23:51:49.101Z,14.10
